Hager, Kentucky
Current Conditions -  °F | °C
As of 7:53 PM on Friday 19 Dec 2014 (Local Time) from KJKL Reporting Station
Clear Clear  
Wind Chill: 30°   Ceiling: Unl
Heat Index: 30°   Visibility: 10mi
Dew Point: 22°   Wind: 3mph
Humidity: 72%   Direction: 40°NE
Pressure: 30.24"   Gusts: NA
Location:  37.7261°N, 83.0786°W
Report Text: KJKL 200053Z AUTO 04003KT 10SM CLR M01/M06 A3024 RMK AO2 SLP250 T10111056
Loading
Personal Weather Stations






























Interactive Weather Map New forecast layout! Learn more

10-Day Weather Forecast

Advertisements
Track Severe Weather on mobile